sensor_id;sensor_type;location;lat;lon;timestamp;P1;durP1;ratioP1;P2;durP2;ratioP2
4638;SDS011;2332;38.646;-9.154;2022-11-15T00:00:50;10.27;;;2.00;;
4638;SDS011;2332;38.646;-9.154;2022-11-15T00:03:16;7.20;;;1.50;;
4638;SDS011;2332;38.646;-9.154;2022-11-15T00:05:43;6.23;;;2.13;;
4638;SDS011;2332;38.646;-9.154;2022-11-15T00:08:08;6.83;;;2.00;;
4638;SDS011;2332;38.646;-9.154;2022-11-15T00:10:34;11.43;;;1.27;;
4638;SDS011;2332;38.646;-9.154;2022-11-15T00:13:00;8.20;;;1.83;;
4638;SDS011;2332;38.646;-9.154;2022-11-15T00:15:29;5.57;;;0.97;;
4638;SDS011;2332;38.646;-9.154;2022-11-15T00:17:55;2.60;;;0.90;;
4638;SDS011;2332;38.646;-9.154;2022-11-15T00:20:20;4.83;;;1.10;;
4638;SDS011;2332;38.646;-9.154;2022-11-15T00:22:46;8.23;;;1.20;;
4638;SDS011;2332;38.646;-9.154;2022-11-15T00:25:11;6.80;;;1.40;;
4638;SDS011;2332;38.646;-9.154;2022-11-15T00:27:37;6.67;;;1.60;;
4638;SDS011;2332;38.646;-9.154;2022-11-15T00:30:03;6.07;;;1.63;;
4638;SDS011;2332;38.646;-9.154;2022-11-15T00:32:31;10.20;;;2.00;;
4638;SDS011;2332;38.646;-9.154;2022-11-15T00:34:57;4.73;;;1.43;;
4638;SDS011;2332;38.646;-9.154;2022-11-15T00:37:23;10.27;;;2.00;;
4638;SDS011;2332;38.646;-9.154;2022-11-15T00:39:48;4.83;;;1.20;;
4638;SDS011;2332;38.646;-9.154;2022-11-15T00:42:14;3.33;;;1.20;;
4638;SDS011;2332;38.646;-9.154;2022-11-15T00:44:39;9.80;;;1.77;;
4638;SDS011;2332;38.646;-9.154;2022-11-15T00:47:05;7.37;;;1.40;;
4638;SDS011;2332;38.646;-9.154;2022-11-15T00:49:30;3.53;;;1.17;;
4638;SDS011;2332;38.646;-9.154;2022-11-15T00:51:56;4.47;;;1.27;;
4638;SDS011;2332;38.646;-9.154;2022-11-15T00:54:21;5.73;;;1.27;;
4638;SDS011;2332;38.646;-9.154;2022-11-15T00:56:47;5.10;;;1.37;;
4638;SDS011;2332;38.646;-9.154;2022-11-15T00:59:13;9.00;;;1.13;;
4638;SDS011;2332;38.646;-9.154;2022-11-15T01:01:39;17.10;;;1.70;;
4638;SDS011;2332;38.646;-9.154;2022-11-15T01:04:04;7.30;;;1.87;;
4638;SDS011;2332;38.646;-9.154;2022-11-15T01:06:30;7.50;;;1.40;;
4638;SDS011;2332;38.646;-9.154;2022-11-15T01:08:56;10.70;;;1.50;;
4638;SDS011;2332;38.646;-9.154;2022-11-15T01:11:21;11.67;;;2.10;;
4638;SDS011;2332;38.646;-9.154;2022-11-15T01:13:47;15.83;;;2.17;;
4638;SDS011;2332;38.646;-9.154;2022-11-15T01:16:13;7.40;;;1.50;;
4638;SDS011;2332;38.646;-9.154;2022-11-15T01:18:41;13.97;;;2.00;;
4638;SDS011;2332;38.646;-9.154;2022-11-15T01:21:12;11.70;;;2.03;;
4638;SDS011;2332;38.646;-9.154;2022-11-15T01:23:39;14.00;;;2.23;;
4638;SDS011;2332;38.646;-9.154;2022-11-15T01:26:06;11.77;;;1.67;;
4638;SDS011;2332;38.646;-9.154;2022-11-15T01:28:34;9.10;;;1.73;;
4638;SDS011;2332;38.646;-9.154;2022-11-15T01:31:01;9.00;;;1.73;;
4638;SDS011;2332;38.646;-9.154;2022-11-15T01:33:28;9.73;;;1.50;;
4638;SDS011;2332;38.646;-9.154;2022-11-15T01:35:54;10.53;;;1.70;;
4638;SDS011;2332;38.646;-9.154;2022-11-15T01:38:20;9.07;;;1.83;;
4638;SDS011;2332;38.646;-9.154;2022-11-15T01:40:45;15.23;;;1.93;;
4638;SDS011;2332;38.646;-9.154;2022-11-15T01:46:06;21.07;;;2.57;;
4638;SDS011;2332;38.646;-9.154;2022-11-15T01:48:34;16.93;;;2.57;;
4638;SDS011;2332;38.646;-9.154;2022-11-15T01:51:01;7.10;;;1.80;;
4638;SDS011;2332;38.646;-9.154;2022-11-15T01:53:30;9.60;;;2.23;;
4638;SDS011;2332;38.646;-9.154;2022-11-15T01:55:56;7.83;;;1.97;;
4638;SDS011;2332;38.646;-9.154;2022-11-15T01:58:22;11.53;;;2.67;;
4638;SDS011;2332;38.646;-9.154;2022-11-15T02:00:48;12.63;;;2.00;;
4638;SDS011;2332;38.646;-9.154;2022-11-15T02:03:14;11.40;;;2.20;;
4638;SDS011;2332;38.646;-9.154;2022-11-15T02:05:40;12.93;;;2.60;;
4638;SDS011;2332;38.646;-9.154;2022-11-15T02:08:06;12.13;;;2.70;;
4638;SDS011;2332;38.646;-9.154;2022-11-15T02:10:32;13.57;;;1.90;;
4638;SDS011;2332;38.646;-9.154;2022-11-15T02:12:57;9.03;;;1.57;;
4638;SDS011;2332;38.646;-9.154;2022-11-15T02:15:25;14.83;;;3.17;;
4638;SDS011;2332;38.646;-9.154;2022-11-15T02:18:37;12.43;;;1.90;;
4638;SDS011;2332;38.646;-9.154;2022-11-15T02:24:07;10.03;;;2.30;;
4638;SDS011;2332;38.646;-9.154;2022-11-15T02:37:46;15.57;;;3.17;;
4638;SDS011;2332;38.646;-9.154;2022-11-15T02:42:50;16.83;;;2.50;;
4638;SDS011;2332;38.646;-9.154;2022-11-15T02:45:46;14.37;;;3.00;;
4638;SDS011;2332;38.646;-9.154;2022-11-15T02:48:15;16.20;;;2.80;;
4638;SDS011;2332;38.646;-9.154;2022-11-15T02:50:41;14.33;;;3.30;;
4638;SDS011;2332;38.646;-9.154;2022-11-15T02:53:08;13.47;;;2.27;;
4638;SDS011;2332;38.646;-9.154;2022-11-15T02:55:34;14.07;;;3.10;;
4638;SDS011;2332;38.646;-9.154;2022-11-15T03:00:45;13.90;;;3.20;;
4638;SDS011;2332;38.646;-9.154;2022-11-15T03:09:01;13.47;;;2.17;;
4638;SDS011;2332;38.646;-9.154;2022-11-15T03:11:28;20.13;;;2.30;;
4638;SDS011;2332;38.646;-9.154;2022-11-15T03:16:46;11.03;;;2.37;;
4638;SDS011;2332;38.646;-9.154;2022-11-15T03:22:09;14.67;;;2.93;;
4638;SDS011;2332;38.646;-9.154;2022-11-15T03:24:37;14.13;;;2.20;;
4638;SDS011;2332;38.646;-9.154;2022-11-15T03:27:04;14.30;;;2.27;;
4638;SDS011;2332;38.646;-9.154;2022-11-15T03:29:32;16.37;;;2.30;;
4638;SDS011;2332;38.646;-9.154;2022-11-15T03:32:03;17.23;;;2.43;;
4638;SDS011;2332;38.646;-9.154;2022-11-15T03:34:33;15.27;;;3.17;;
4638;SDS011;2332;38.646;-9.154;2022-11-15T03:37:00;19.13;;;3.10;;
4638;SDS011;2332;38.646;-9.154;2022-11-15T03:39:26;20.60;;;3.10;;
4638;SDS011;2332;38.646;-9.154;2022-11-15T03:45:11;14.00;;;3.20;;
4638;SDS011;2332;38.646;-9.154;2022-11-15T03:47:41;19.13;;;2.77;;
4638;SDS011;2332;38.646;-9.154;2022-11-15T03:50:11;12.57;;;3.60;;
4638;SDS011;2332;38.646;-9.154;2022-11-15T03:52:39;14.53;;;2.60;;
4638;SDS011;2332;38.646;-9.154;2022-11-15T03:55:06;15.00;;;3.47;;
4638;SDS011;2332;38.646;-9.154;2022-11-15T03:57:35;17.03;;;2.97;;
4638;SDS011;2332;38.646;-9.154;2022-11-15T04:00:02;20.33;;;2.90;;
4638;SDS011;2332;38.646;-9.154;2022-11-15T04:02:29;15.50;;;3.43;;
4638;SDS011;2332;38.646;-9.154;2022-11-15T04:04:54;17.23;;;2.50;;
4638;SDS011;2332;38.646;-9.154;2022-11-15T04:07:20;21.60;;;3.30;;
4638;SDS011;2332;38.646;-9.154;2022-11-15T04:09:45;19.50;;;2.60;;
4638;SDS011;2332;38.646;-9.154;2022-11-15T04:12:33;18.00;;;2.73;;
4638;SDS011;2332;38.646;-9.154;2022-11-15T04:17:45;18.33;;;2.87;;
4638;SDS011;2332;38.646;-9.154;2022-11-15T04:20:14;22.63;;;3.20;;
4638;SDS011;2332;38.646;-9.154;2022-11-15T04:23:12;17.73;;;3.00;;
4638;SDS011;2332;38.646;-9.154;2022-11-15T04:25:59;24.37;;;3.10;;
4638;SDS011;2332;38.646;-9.154;2022-11-15T04:28:26;17.60;;;2.70;;
4638;SDS011;2332;38.646;-9.154;2022-11-15T04:30:52;21.07;;;4.10;;
4638;SDS011;2332;38.646;-9.154;2022-11-15T04:33:17;21.27;;;3.17;;
4638;SDS011;2332;38.646;-9.154;2022-11-15T04:35:43;28.60;;;4.13;;
4638;SDS011;2332;38.646;-9.154;2022-11-15T04:38:09;18.17;;;3.20;;
4638;SDS011;2332;38.646;-9.154;2022-11-15T04:40:36;18.33;;;3.07;;
4638;SDS011;2332;38.646;-9.154;2022-11-15T04:43:02;22.10;;;2.70;;
4638;SDS011;2332;38.646;-9.154;2022-11-15T04:45:28;26.37;;;2.90;;
4638;SDS011;2332;38.646;-9.154;2022-11-15T04:47:53;20.13;;;3.23;;
4638;SDS011;2332;38.646;-9.154;2022-11-15T04:50:19;15.00;;;2.67;;
4638;SDS011;2332;38.646;-9.154;2022-11-15T04:52:52;21.53;;;2.60;;
4638;SDS011;2332;38.646;-9.154;2022-11-15T04:55:18;21.20;;;3.03;;
4638;SDS011;2332;38.646;-9.154;2022-11-15T04:57:44;26.43;;;2.90;;
4638;SDS011;2332;38.646;-9.154;2022-11-15T05:00:11;23.27;;;2.73;;
4638;SDS011;2332;38.646;-9.154;2022-11-15T05:02:37;16.90;;;2.83;;
4638;SDS011;2332;38.646;-9.154;2022-11-15T05:05:21;22.70;;;2.40;;
4638;SDS011;2332;38.646;-9.154;2022-11-15T05:07:47;15.70;;;2.33;;
4638;SDS011;2332;38.646;-9.154;2022-11-15T05:10:12;16.63;;;2.70;;
4638;SDS011;2332;38.646;-9.154;2022-11-15T05:12:38;17.43;;;2.70;;
4638;SDS011;2332;38.646;-9.154;2022-11-15T05:15:04;22.33;;;2.70;;
4638;SDS011;2332;38.646;-9.154;2022-11-15T05:17:30;25.17;;;3.50;;
4638;SDS011;2332;38.646;-9.154;2022-11-15T05:19:55;27.33;;;4.00;;
4638;SDS011;2332;38.646;-9.154;2022-11-15T05:22:21;25.03;;;3.27;;
4638;SDS011;2332;38.646;-9.154;2022-11-15T05:24:49;22.67;;;3.50;;
4638;SDS011;2332;38.646;-9.154;2022-11-15T05:27:14;13.33;;;2.60;;
4638;SDS011;2332;38.646;-9.154;2022-11-15T05:29:40;15.97;;;2.80;;
4638;SDS011;2332;38.646;-9.154;2022-11-15T05:32:06;21.07;;;3.23;;
4638;SDS011;2332;38.646;-9.154;2022-11-15T05:34:33;9.67;;;2.43;;
4638;SDS011;2332;38.646;-9.154;2022-11-15T05:37:00;16.30;;;3.00;;
4638;SDS011;2332;38.646;-9.154;2022-11-15T05:39:25;15.90;;;3.47;;
4638;SDS011;2332;38.646;-9.154;2022-11-15T05:41:52;22.83;;;3.23;;
4638;SDS011;2332;38.646;-9.154;2022-11-15T05:44:21;18.63;;;2.83;;
4638;SDS011;2332;38.646;-9.154;2022-11-15T05:46:47;23.10;;;3.23;;
4638;SDS011;2332;38.646;-9.154;2022-11-15T05:49:15;19.30;;;2.77;;
4638;SDS011;2332;38.646;-9.154;2022-11-15T05:51:43;19.10;;;3.00;;
4638;SDS011;2332;38.646;-9.154;2022-11-15T05:54:10;18.33;;;2.47;;
4638;SDS011;2332;38.646;-9.154;2022-11-15T05:56:36;18.43;;;2.70;;
4638;SDS011;2332;38.646;-9.154;2022-11-15T05:59:02;21.90;;;3.20;;
4638;SDS011;2332;38.646;-9.154;2022-11-15T06:01:28;13.07;;;2.87;;
4638;SDS011;2332;38.646;-9.154;2022-11-15T06:03:53;19.67;;;3.53;;
4638;SDS011;2332;38.646;-9.154;2022-11-15T06:06:19;16.37;;;3.03;;
4638;SDS011;2332;38.646;-9.154;2022-11-15T06:08:44;20.20;;;3.97;;
4638;SDS011;2332;38.646;-9.154;2022-11-15T06:11:10;22.50;;;3.30;;
4638;SDS011;2332;38.646;-9.154;2022-11-15T06:13:36;18.07;;;3.30;;
4638;SDS011;2332;38.646;-9.154;2022-11-15T06:16:01;18.60;;;2.87;;
4638;SDS011;2332;38.646;-9.154;2022-11-15T06:18:27;15.13;;;2.87;;
4638;SDS011;2332;38.646;-9.154;2022-11-15T06:20:52;14.20;;;2.50;;
4638;SDS011;2332;38.646;-9.154;2022-11-15T06:23:18;16.20;;;3.27;;
4638;SDS011;2332;38.646;-9.154;2022-11-15T06:25:44;23.53;;;2.77;;
4638;SDS011;2332;38.646;-9.154;2022-11-15T06:28:09;13.77;;;2.20;;
4638;SDS011;2332;38.646;-9.154;2022-11-15T06:30:35;28.87;;;3.50;;
4638;SDS011;2332;38.646;-9.154;2022-11-15T06:33:04;20.43;;;2.27;;
4638;SDS011;2332;38.646;-9.154;2022-11-15T06:35:30;19.23;;;3.20;;
4638;SDS011;2332;38.646;-9.154;2022-11-15T06:38:05;15.40;;;2.87;;
4638;SDS011;2332;38.646;-9.154;2022-11-15T06:40:33;18.80;;;3.37;;
4638;SDS011;2332;38.646;-9.154;2022-11-15T06:43:00;27.27;;;3.47;;
4638;SDS011;2332;38.646;-9.154;2022-11-15T06:45:29;21.20;;;3.07;;
4638;SDS011;2332;38.646;-9.154;2022-11-15T06:47:54;12.73;;;2.47;;
4638;SDS011;2332;38.646;-9.154;2022-11-15T06:50:20;16.13;;;2.67;;
4638;SDS011;2332;38.646;-9.154;2022-11-15T06:52:46;18.03;;;3.00;;
4638;SDS011;2332;38.646;-9.154;2022-11-15T06:55:11;17.00;;;2.70;;
4638;SDS011;2332;38.646;-9.154;2022-11-15T06:57:42;22.43;;;3.53;;
4638;SDS011;2332;38.646;-9.154;2022-11-15T07:00:15;23.67;;;3.70;;
4638;SDS011;2332;38.646;-9.154;2022-11-15T07:02:41;18.53;;;2.93;;
4638;SDS011;2332;38.646;-9.154;2022-11-15T07:05:07;16.67;;;3.63;;
4638;SDS011;2332;38.646;-9.154;2022-11-15T07:07:33;21.43;;;2.93;;
4638;SDS011;2332;38.646;-9.154;2022-11-15T07:09:58;20.40;;;4.00;;
4638;SDS011;2332;38.646;-9.154;2022-11-15T07:12:24;23.73;;;3.10;;
4638;SDS011;2332;38.646;-9.154;2022-11-15T07:14:50;25.37;;;3.60;;
4638;SDS011;2332;38.646;-9.154;2022-11-15T07:17:15;19.17;;;3.00;;
4638;SDS011;2332;38.646;-9.154;2022-11-15T07:19:41;24.87;;;3.73;;
4638;SDS011;2332;38.646;-9.154;2022-11-15T07:22:06;28.57;;;4.27;;
4638;SDS011;2332;38.646;-9.154;2022-11-15T07:24:32;23.00;;;3.70;;
4638;SDS011;2332;38.646;-9.154;2022-11-15T07:26:57;15.83;;;3.40;;
4638;SDS011;2332;38.646;-9.154;2022-11-15T07:29:23;19.40;;;3.40;;
4638;SDS011;2332;38.646;-9.154;2022-11-15T07:31:49;20.23;;;3.50;;
4638;SDS011;2332;38.646;-9.154;2022-11-15T07:34:15;33.87;;;4.37;;
4638;SDS011;2332;38.646;-9.154;2022-11-15T07:36:41;20.20;;;3.87;;
4638;SDS011;2332;38.646;-9.154;2022-11-15T07:39:07;29.00;;;4.30;;
4638;SDS011;2332;38.646;-9.154;2022-11-15T07:41:32;26.93;;;3.90;;
4638;SDS011;2332;38.646;-9.154;2022-11-15T07:43:58;30.90;;;3.47;;
4638;SDS011;2332;38.646;-9.154;2022-11-15T07:46:23;12.00;;;2.70;;
4638;SDS011;2332;38.646;-9.154;2022-11-15T07:48:49;21.27;;;4.10;;
4638;SDS011;2332;38.646;-9.154;2022-11-15T07:51:15;22.70;;;4.57;;
4638;SDS011;2332;38.646;-9.154;2022-11-15T07:53:41;25.53;;;4.40;;
4638;SDS011;2332;38.646;-9.154;2022-11-15T07:56:08;23.80;;;3.87;;
4638;SDS011;2332;38.646;-9.154;2022-11-15T07:58:36;23.67;;;3.50;;
4638;SDS011;2332;38.646;-9.154;2022-11-15T08:01:05;21.60;;;3.87;;
4638;SDS011;2332;38.646;-9.154;2022-11-15T08:03:31;17.43;;;3.27;;
4638;SDS011;2332;38.646;-9.154;2022-11-15T08:05:57;26.70;;;5.70;;
4638;SDS011;2332;38.646;-9.154;2022-11-15T08:08:22;15.27;;;3.10;;
4638;SDS011;2332;38.646;-9.154;2022-11-15T08:10:48;24.00;;;3.60;;
4638;SDS011;2332;38.646;-9.154;2022-11-15T08:13:13;22.03;;;4.03;;
4638;SDS011;2332;38.646;-9.154;2022-11-15T08:15:39;16.40;;;3.57;;
4638;SDS011;2332;38.646;-9.154;2022-11-15T08:18:12;22.80;;;4.10;;
4638;SDS011;2332;38.646;-9.154;2022-11-15T08:20:39;27.23;;;3.50;;
4638;SDS011;2332;38.646;-9.154;2022-11-15T08:23:05;22.80;;;2.80;;
4638;SDS011;2332;38.646;-9.154;2022-11-15T08:25:31;16.30;;;3.80;;
4638;SDS011;2332;38.646;-9.154;2022-11-15T08:27:58;23.00;;;3.40;;
4638;SDS011;2332;38.646;-9.154;2022-11-15T08:30:25;22.00;;;3.50;;
4638;SDS011;2332;38.646;-9.154;2022-11-15T08:32:51;22.17;;;4.40;;
4638;SDS011;2332;38.646;-9.154;2022-11-15T08:35:18;21.57;;;3.10;;
4638;SDS011;2332;38.646;-9.154;2022-11-15T08:37:44;22.57;;;3.43;;
4638;SDS011;2332;38.646;-9.154;2022-11-15T08:40:10;23.00;;;3.33;;
4638;SDS011;2332;38.646;-9.154;2022-11-15T08:42:36;16.37;;;3.30;;
4638;SDS011;2332;38.646;-9.154;2022-11-15T08:45:02;28.80;;;4.07;;
4638;SDS011;2332;38.646;-9.154;2022-11-15T08:47:28;18.17;;;3.43;;
4638;SDS011;2332;38.646;-9.154;2022-11-15T08:49:53;28.63;;;5.40;;
4638;SDS011;2332;38.646;-9.154;2022-11-15T08:52:19;23.17;;;4.30;;
4638;SDS011;2332;38.646;-9.154;2022-11-15T08:54:44;21.87;;;5.10;;
4638;SDS011;2332;38.646;-9.154;2022-11-15T08:57:10;25.30;;;4.40;;
4638;SDS011;2332;38.646;-9.154;2022-11-15T08:59:36;24.77;;;3.50;;
4638;SDS011;2332;38.646;-9.154;2022-11-15T09:02:02;22.20;;;4.30;;
4638;SDS011;2332;38.646;-9.154;2022-11-15T09:04:28;25.63;;;4.27;;
4638;SDS011;2332;38.646;-9.154;2022-11-15T09:06:53;22.07;;;4.20;;
4638;SDS011;2332;38.646;-9.154;2022-11-15T09:09:19;30.23;;;5.67;;
4638;SDS011;2332;38.646;-9.154;2022-11-15T09:11:44;25.67;;;5.23;;
4638;SDS011;2332;38.646;-9.154;2022-11-15T09:14:10;16.83;;;3.70;;
4638;SDS011;2332;38.646;-9.154;2022-11-15T09:16:37;24.00;;;3.70;;
4638;SDS011;2332;38.646;-9.154;2022-11-15T09:19:02;26.10;;;4.30;;
4638;SDS011;2332;38.646;-9.154;2022-11-15T09:21:28;17.43;;;3.90;;
4638;SDS011;2332;38.646;-9.154;2022-11-15T09:23:54;24.50;;;4.70;;
4638;SDS011;2332;38.646;-9.154;2022-11-15T09:26:20;27.80;;;4.50;;
4638;SDS011;2332;38.646;-9.154;2022-11-15T09:28:46;31.33;;;4.03;;
4638;SDS011;2332;38.646;-9.154;2022-11-15T09:31:11;27.57;;;4.80;;
4638;SDS011;2332;38.646;-9.154;2022-11-15T09:33:37;27.90;;;4.30;;
4638;SDS011;2332;38.646;-9.154;2022-11-15T09:36:03;24.90;;;4.97;;
4638;SDS011;2332;38.646;-9.154;2022-11-15T09:38:31;31.57;;;3.90;;
4638;SDS011;2332;38.646;-9.154;2022-11-15T09:41:22;26.63;;;4.40;;
4638;SDS011;2332;38.646;-9.154;2022-11-15T09:43:49;28.00;;;4.90;;
4638;SDS011;2332;38.646;-9.154;2022-11-15T09:49:22;22.80;;;4.60;;
4638;SDS011;2332;38.646;-9.154;2022-11-15T09:51:49;29.07;;;5.67;;
4638;SDS011;2332;38.646;-9.154;2022-11-15T09:54:32;18.53;;;4.00;;
4638;SDS011;2332;38.646;-9.154;2022-11-15T09:57:15;17.40;;;3.80;;
4638;SDS011;2332;38.646;-9.154;2022-11-15T10:04:52;15.83;;;3.47;;
4638;SDS011;2332;38.646;-9.154;2022-11-15T10:07:24;19.80;;;3.03;;
4638;SDS011;2332;38.646;-9.154;2022-11-15T10:12:44;24.70;;;4.00;;
4638;SDS011;2332;38.646;-9.154;2022-11-15T10:15:14;15.30;;;3.33;;
4638;SDS011;2332;38.646;-9.154;2022-11-15T10:20:31;21.83;;;3.87;;
4638;SDS011;2332;38.646;-9.154;2022-11-15T10:23:04;27.97;;;3.43;;
4638;SDS011;2332;38.646;-9.154;2022-11-15T10:25:32;23.50;;;4.00;;
4638;SDS011;2332;38.646;-9.154;2022-11-15T10:30:33;26.40;;;4.00;;
4638;SDS011;2332;38.646;-9.154;2022-11-15T10:33:17;28.90;;;5.30;;
4638;SDS011;2332;38.646;-9.154;2022-11-15T10:41:19;23.23;;;3.63;;
4638;SDS011;2332;38.646;-9.154;2022-11-15T10:43:45;24.10;;;4.10;;
4638;SDS011;2332;38.646;-9.154;2022-11-15T10:46:18;22.90;;;3.40;;
4638;SDS011;2332;38.646;-9.154;2022-11-15T10:48:45;17.33;;;3.77;;
4638;SDS011;2332;38.646;-9.154;2022-11-15T10:51:27;18.83;;;3.07;;
4638;SDS011;2332;38.646;-9.154;2022-11-15T10:53:54;26.20;;;4.67;;
4638;SDS011;2332;38.646;-9.154;2022-11-15T10:56:21;19.93;;;3.97;;
4638;SDS011;2332;38.646;-9.154;2022-11-15T10:58:52;18.90;;;3.90;;
4638;SDS011;2332;38.646;-9.154;2022-11-15T11:01:21;27.43;;;4.83;;
4638;SDS011;2332;38.646;-9.154;2022-11-15T11:04:02;27.47;;;3.87;;
4638;SDS011;2332;38.646;-9.154;2022-11-15T11:06:29;37.23;;;4.87;;
4638;SDS011;2332;38.646;-9.154;2022-11-15T11:11:21;29.73;;;4.70;;
4638;SDS011;2332;38.646;-9.154;2022-11-15T11:13:47;28.60;;;5.03;;
4638;SDS011;2332;38.646;-9.154;2022-11-15T11:21:15;28.53;;;4.77;;
4638;SDS011;2332;38.646;-9.154;2022-11-15T11:23:55;27.83;;;4.83;;
4638;SDS011;2332;38.646;-9.154;2022-11-15T11:48:43;29.93;;;5.13;;
4638;SDS011;2332;38.646;-9.154;2022-11-15T11:51:15;36.77;;;5.67;;
4638;SDS011;2332;38.646;-9.154;2022-11-15T11:56:29;31.10;;;5.60;;
4638;SDS011;2332;38.646;-9.154;2022-11-15T11:59:02;30.43;;;5.43;;
4638;SDS011;2332;38.646;-9.154;2022-11-15T12:01:41;21.73;;;4.73;;
4638;SDS011;2332;38.646;-9.154;2022-11-15T12:04:14;25.83;;;4.70;;
4638;SDS011;2332;38.646;-9.154;2022-11-15T12:07:25;22.23;;;4.20;;
4638;SDS011;2332;38.646;-9.154;2022-11-15T12:09:44;39.00;;;5.87;;
4638;SDS011;2332;38.646;-9.154;2022-11-15T12:15:23;39.00;;;6.10;;
4638;SDS011;2332;38.646;-9.154;2022-11-15T12:17:51;31.70;;;6.30;;
4638;SDS011;2332;38.646;-9.154;2022-11-15T12:20:18;25.70;;;4.17;;
4638;SDS011;2332;38.646;-9.154;2022-11-15T12:22:53;31.77;;;5.57;;
4638;SDS011;2332;38.646;-9.154;2022-11-15T12:25:36;27.83;;;5.20;;
4638;SDS011;2332;38.646;-9.154;2022-11-15T12:33:57;28.00;;;4.93;;
4638;SDS011;2332;38.646;-9.154;2022-11-15T12:41:19;28.17;;;5.70;;
4638;SDS011;2332;38.646;-9.154;2022-11-15T12:43:46;36.73;;;6.10;;
4638;SDS011;2332;38.646;-9.154;2022-11-15T12:48:46;45.77;;;6.03;;
4638;SDS011;2332;38.646;-9.154;2022-11-15T12:51:17;31.87;;;6.10;;
4638;SDS011;2332;38.646;-9.154;2022-11-15T12:53:45;29.20;;;5.20;;
4638;SDS011;2332;38.646;-9.154;2022-11-15T13:01:08;25.50;;;5.30;;
4638;SDS011;2332;38.646;-9.154;2022-11-15T13:03:34;43.20;;;6.07;;
4638;SDS011;2332;38.646;-9.154;2022-11-15T13:06:01;35.80;;;5.13;;
4638;SDS011;2332;38.646;-9.154;2022-11-15T13:08:35;28.30;;;5.27;;
4638;SDS011;2332;38.646;-9.154;2022-11-15T13:17:02;34.67;;;5.33;;
4638;SDS011;2332;38.646;-9.154;2022-11-15T13:19:35;32.53;;;5.07;;
4638;SDS011;2332;38.646;-9.154;2022-11-15T13:22:04;28.70;;;5.23;;
4638;SDS011;2332;38.646;-9.154;2022-11-15T13:24:49;40.60;;;5.93;;
4638;SDS011;2332;38.646;-9.154;2022-11-15T13:27:14;34.33;;;5.70;;
4638;SDS011;2332;38.646;-9.154;2022-11-15T13:29:43;29.13;;;5.43;;
4638;SDS011;2332;38.646;-9.154;2022-11-15T13:32:15;35.80;;;6.47;;
4638;SDS011;2332;38.646;-9.154;2022-11-15T13:34:47;28.93;;;4.97;;
4638;SDS011;2332;38.646;-9.154;2022-11-15T13:39:46;27.50;;;5.63;;
4638;SDS011;2332;38.646;-9.154;2022-11-15T13:42:17;35.63;;;6.20;;
4638;SDS011;2332;38.646;-9.154;2022-11-15T13:44:57;39.07;;;5.70;;
4638;SDS011;2332;38.646;-9.154;2022-11-15T13:47:28;35.13;;;6.20;;
4638;SDS011;2332;38.646;-9.154;2022-11-15T13:49:57;35.67;;;6.93;;
4638;SDS011;2332;38.646;-9.154;2022-11-15T13:52:25;36.90;;;6.70;;
4638;SDS011;2332;38.646;-9.154;2022-11-15T13:54:58;31.47;;;5.83;;
4638;SDS011;2332;38.646;-9.154;2022-11-15T13:57:26;34.63;;;5.60;;
4638;SDS011;2332;38.646;-9.154;2022-11-15T13:59:56;40.03;;;5.60;;
4638;SDS011;2332;38.646;-9.154;2022-11-15T14:02:26;38.43;;;5.80;;
4638;SDS011;2332;38.646;-9.154;2022-11-15T14:04:55;28.03;;;6.10;;
4638;SDS011;2332;38.646;-9.154;2022-11-15T14:07:23;31.77;;;5.60;;
4638;SDS011;2332;38.646;-9.154;2022-11-15T14:09:50;47.00;;;7.17;;
4638;SDS011;2332;38.646;-9.154;2022-11-15T14:12:27;27.53;;;5.00;;
4638;SDS011;2332;38.646;-9.154;2022-11-15T14:14:57;27.10;;;5.40;;
4638;SDS011;2332;38.646;-9.154;2022-11-15T14:19:59;25.90;;;5.70;;
4638;SDS011;2332;38.646;-9.154;2022-11-15T14:22:28;41.33;;;6.63;;
4638;SDS011;2332;38.646;-9.154;2022-11-15T14:27:44;27.50;;;5.13;;
4638;SDS011;2332;38.646;-9.154;2022-11-15T14:30:28;36.30;;;5.27;;
4638;SDS011;2332;38.646;-9.154;2022-11-15T14:32:54;38.57;;;6.20;;
4638;SDS011;2332;38.646;-9.154;2022-11-15T14:35:20;38.50;;;6.73;;
4638;SDS011;2332;38.646;-9.154;2022-11-15T14:37:47;36.87;;;6.60;;
4638;SDS011;2332;38.646;-9.154;2022-11-15T14:40:14;35.77;;;7.30;;
4638;SDS011;2332;38.646;-9.154;2022-11-15T14:42:42;35.03;;;6.60;;
4638;SDS011;2332;38.646;-9.154;2022-11-15T14:45:13;37.90;;;5.83;;
4638;SDS011;2332;38.646;-9.154;2022-11-15T14:47:48;34.60;;;6.27;;
4638;SDS011;2332;38.646;-9.154;2022-11-15T14:52:43;20.13;;;4.70;;
4638;SDS011;2332;38.646;-9.154;2022-11-15T14:55:24;30.43;;;5.30;;
4638;SDS011;2332;38.646;-9.154;2022-11-15T14:57:50;26.20;;;4.33;;
4638;SDS011;2332;38.646;-9.154;2022-11-15T15:00:17;29.07;;;5.60;;
4638;SDS011;2332;38.646;-9.154;2022-11-15T15:02:44;28.53;;;5.83;;
4638;SDS011;2332;38.646;-9.154;2022-11-15T15:05:23;32.93;;;6.27;;
4638;SDS011;2332;38.646;-9.154;2022-11-15T15:07:51;24.23;;;4.80;;
4638;SDS011;2332;38.646;-9.154;2022-11-15T15:10:20;30.13;;;5.90;;
4638;SDS011;2332;38.646;-9.154;2022-11-15T15:12:46;27.43;;;5.60;;
4638;SDS011;2332;38.646;-9.154;2022-11-15T15:15:13;30.17;;;5.27;;
4638;SDS011;2332;38.646;-9.154;2022-11-15T15:17:40;27.50;;;5.17;;
4638;SDS011;2332;38.646;-9.154;2022-11-15T15:20:06;24.83;;;4.13;;
4638;SDS011;2332;38.646;-9.154;2022-11-15T15:22:32;19.60;;;3.70;;
4638;SDS011;2332;38.646;-9.154;2022-11-15T15:24:58;16.93;;;3.87;;
4638;SDS011;2332;38.646;-9.154;2022-11-15T15:27:23;24.53;;;5.23;;
4638;SDS011;2332;38.646;-9.154;2022-11-15T15:29:49;19.93;;;4.57;;
4638;SDS011;2332;38.646;-9.154;2022-11-15T15:32:14;14.40;;;3.23;;
4638;SDS011;2332;38.646;-9.154;2022-11-15T15:34:40;5.50;;;2.37;;
4638;SDS011;2332;38.646;-9.154;2022-11-15T15:37:06;5.63;;;1.80;;
4638;SDS011;2332;38.646;-9.154;2022-11-15T15:39:52;5.40;;;2.00;;
4638;SDS011;2332;38.646;-9.154;2022-11-15T15:42:19;2.67;;;0.90;;
4638;SDS011;2332;38.646;-9.154;2022-11-15T15:44:46;4.00;;;0.80;;
4638;SDS011;2332;38.646;-9.154;2022-11-15T15:47:16;1.73;;;0.90;;
4638;SDS011;2332;38.646;-9.154;2022-11-15T15:49:43;3.13;;;1.10;;
4638;SDS011;2332;38.646;-9.154;2022-11-15T15:52:09;2.40;;;1.20;;
4638;SDS011;2332;38.646;-9.154;2022-11-15T15:54:35;1.90;;;1.20;;
4638;SDS011;2332;38.646;-9.154;2022-11-15T15:57:00;2.10;;;1.00;;
4638;SDS011;2332;38.646;-9.154;2022-11-15T15:59:26;1.50;;;1.40;;
4638;SDS011;2332;38.646;-9.154;2022-11-15T16:01:52;2.00;;;1.73;;
4638;SDS011;2332;38.646;-9.154;2022-11-15T16:04:17;1.93;;;1.30;;
4638;SDS011;2332;38.646;-9.154;2022-11-15T16:06:43;1.10;;;1.10;;
4638;SDS011;2332;38.646;-9.154;2022-11-15T16:09:12;1.30;;;1.00;;
4638;SDS011;2332;38.646;-9.154;2022-11-15T16:11:39;1.10;;;0.90;;
4638;SDS011;2332;38.646;-9.154;2022-11-15T16:14:06;1.77;;;0.77;;
4638;SDS011;2332;38.646;-9.154;2022-11-15T16:16:32;0.83;;;0.70;;
4638;SDS011;2332;38.646;-9.154;2022-11-15T16:18:59;2.00;;;0.90;;
4638;SDS011;2332;38.646;-9.154;2022-11-15T16:21:26;3.57;;;1.70;;
4638;SDS011;2332;38.646;-9.154;2022-11-15T16:23:54;2.07;;;1.30;;
4638;SDS011;2332;38.646;-9.154;2022-11-15T16:26:21;2.07;;;1.90;;
4638;SDS011;2332;38.646;-9.154;2022-11-15T16:28:50;2.67;;;2.47;;
4638;SDS011;2332;38.646;-9.154;2022-11-15T16:31:16;3.13;;;2.50;;
4638;SDS011;2332;38.646;-9.154;2022-11-15T16:33:43;3.07;;;2.87;;
4638;SDS011;2332;38.646;-9.154;2022-11-15T16:36:22;5.13;;;2.60;;
4638;SDS011;2332;38.646;-9.154;2022-11-15T16:38:49;2.10;;;1.30;;
4638;SDS011;2332;38.646;-9.154;2022-11-15T16:41:15;4.00;;;1.77;;
4638;SDS011;2332;38.646;-9.154;2022-11-15T16:43:43;6.73;;;1.60;;
4638;SDS011;2332;38.646;-9.154;2022-11-15T16:46:18;1.80;;;1.60;;
4638;SDS011;2332;38.646;-9.154;2022-11-15T16:48:48;1.50;;;0.97;;
4638;SDS011;2332;38.646;-9.154;2022-11-15T16:51:14;4.50;;;1.50;;
4638;SDS011;2332;38.646;-9.154;2022-11-15T16:53:39;4.67;;;1.60;;
4638;SDS011;2332;38.646;-9.154;2022-11-15T16:58:49;2.37;;;1.60;;
4638;SDS011;2332;38.646;-9.154;2022-11-15T17:01:18;4.03;;;1.73;;
4638;SDS011;2332;38.646;-9.154;2022-11-15T17:03:46;7.03;;;2.50;;
4638;SDS011;2332;38.646;-9.154;2022-11-15T17:06:12;4.17;;;1.93;;
4638;SDS011;2332;38.646;-9.154;2022-11-15T17:08:38;5.13;;;2.70;;
4638;SDS011;2332;38.646;-9.154;2022-11-15T17:11:05;6.10;;;2.60;;